Time;durP1;ratioP1;P1;durP2;ratioP2;P2;SDS_P1;SDS_P2;PMS_P1;PMS_P2;Temp;Humidity;BMP_temperature;BMP_pressure;BME280_temperature;BME280_humidity;BME280_pressure;Samples;Min_cycle;Max_cycle;Signal;HPM_P1;HPM_P2
2023/07/08 00:00:11;;;;;;;22.95;8.25;;;;;;;;;;5104711;28;20047;-47
2023/07/08 00:02:37;;;;;;;28.35;9.50;;;;;;;;;;5104976;28;20047;-48
2023/07/08 00:05:04;;;;;;;33.17;10.27;;;;;;;;;;5105226;28;20047;-57
2023/07/08 00:07:31;;;;;;;25.20;8.52;;;;;;;;;;5104642;28;20039;-50
2023/07/08 00:09:57;;;;;;;26.30;8.65;;;;;;;;;;5106327;28;20030;-49
2023/07/08 00:12:24;;;;;;;22.45;8.13;;;;;;;;;;5109090;28;20020;-50
2023/07/08 00:14:51;;;;;;;24.35;7.80;;;;;;;;;;5108664;28;20024;-47
2023/07/08 00:17:18;;;;;;;23.92;7.60;;;;;;;;;;5109175;28;20023;-49
2023/07/08 00:19:45;;;;;;;28.80;8.40;;;;;;;;;;5109109;28;20039;-52
2023/07/08 00:22:15;;;;;;;18.85;7.28;;;;;;;;;;5108995;28;20022;-48
2023/07/08 00:24:45;;;;;;;21.08;8.23;;;;;;;;;;5108591;28;20082;-47
2023/07/08 00:27:15;;;;;;;24.17;8.05;;;;;;;;;;5108375;28;20036;-47
2023/07/08 00:29:42;;;;;;;20.50;7.18;;;;;;;;;;5108938;28;20032;-46
2023/07/08 00:32:10;;;;;;;25.73;12.73;;;;;;;;;;5108294;28;20245;-46
2023/07/08 00:34:36;;;;;;;26.40;15.20;;;;;;;;;;5108874;28;20028;-48
2023/07/08 00:37:05;;;;;;;31.17;12.98;;;;;;;;;;5108772;28;20051;-47
2023/07/08 00:39:34;;;;;;;24.52;10.77;;;;;;;;;;5108847;28;20032;-47
2023/07/08 00:42:01;;;;;;;20.33;9.90;;;;;;;;;;5108428;28;20131;-52
2023/07/08 00:44:29;;;;;;;24.35;9.30;;;;;;;;;;5090596;28;20027;-50
2023/07/08 00:46:56;;;;;;;24.45;8.57;;;;;;;;;;5108222;28;20304;-51
2023/07/08 00:49:26;;;;;;;17.42;7.40;;;;;;;;;;5107692;28;20036;-49
2023/07/08 00:52:03;;;;;;;21.58;7.45;;;;;;;;;;5107573;28;20330;-52
2023/07/08 00:54:30;;;;;;;20.73;7.57;;;;;;;;;;5107964;28;20057;-49
2023/07/08 00:56:59;;;;;;;20.27;7.18;;;;;;;;;;5107398;28;20021;-52
2023/07/08 00:59:30;;;;;;;22.33;7.75;;;;;;;;;;5107723;28;20024;-51
2023/07/08 01:01:58;;;;;;;24.00;7.15;;;;;;;;;;5107306;28;20047;-50
2023/07/08 01:04:30;;;;;;;20.08;7.20;;;;;;;;;;5107540;28;20028;-53
2023/07/08 01:06:57;;;;;;;19.30;6.07;;;;;;;;;;5107246;28;20024;-53
2023/07/08 01:09:29;;;;;;;21.48;6.50;;;;;;;;;;5107275;28;20296;-48
2023/07/08 01:11:58;;;;;;;20.38;6.68;;;;;;;;;;5107112;28;20053;-53
2023/07/08 01:14:27;;;;;;;20.52;6.57;;;;;;;;;;5107254;28;20028;-47
2023/07/08 01:16:54;;;;;;;21.73;7.20;;;;;;;;;;5107000;28;20024;-48
2023/07/08 01:19:32;;;;;;;18.73;6.88;;;;;;;;;;5107429;28;20058;-51
2023/07/08 01:22:01;;;;;;;20.58;6.43;;;;;;;;;;5106448;28;20055;-47
2023/07/08 01:24:31;;;;;;;18.35;6.03;;;;;;;;;;5106919;28;20267;-48
2023/07/08 01:26:58;;;;;;;24.50;6.15;;;;;;;;;;5106652;28;20034;-46
2023/07/08 01:29:25;;;;;;;17.05;6.65;;;;;;;;;;5106768;28;20023;-48
2023/07/08 01:31:51;;;;;;;20.88;6.20;;;;;;;;;;5107067;28;20027;-49
2023/07/08 01:34:19;;;;;;;19.55;6.28;;;;;;;;;;5107002;28;20035;-49
2023/07/08 01:36:48;;;;;;;20.65;6.38;;;;;;;;;;5106498;28;20016;-46
2023/07/08 01:39:17;;;;;;;18.45;5.90;;;;;;;;;;5106872;28;20327;-47
2023/07/08 01:41:44;;;;;;;19.20;6.10;;;;;;;;;;5106697;28;20027;-49
2023/07/08 01:44:24;;;;;;;25.13;6.47;;;;;;;;;;5106443;28;20389;-54
2023/07/08 01:46:52;;;;;;;22.33;6.75;;;;;;;;;;5106585;28;20043;-50
2023/07/08 01:49:19;;;;;;;19.98;6.38;;;;;;;;;;5106694;28;20068;-50
2023/07/08 01:51:47;;;;;;;18.85;5.68;;;;;;;;;;5106366;28;20253;-52
2023/07/08 01:54:14;;;;;;;19.65;6.25;;;;;;;;;;5106593;28;20215;-48
2023/07/08 01:56:41;;;;;;;18.10;6.30;;;;;;;;;;5106361;28;20042;-46
2023/07/08 01:59:08;;;;;;;19.60;6.20;;;;;;;;;;5106481;28;20028;-46
2023/07/08 02:01:34;;;;;;;19.60;6.38;;;;;;;;;;5106480;28;20354;-48
2023/07/08 02:04:01;;;;;;;22.45;6.60;;;;;;;;;;5106449;28;20100;-47
2023/07/08 02:06:27;;;;;;;23.75;6.07;;;;;;;;;;5105900;28;20020;-45
2023/07/08 02:08:58;;;;;;;25.23;6.93;;;;;;;;;;5106315;28;20032;-46
2023/07/08 02:11:25;;;;;;;23.23;5.97;;;;;;;;;;5106039;28;20024;-50
2023/07/08 02:13:52;;;;;;;20.42;6.10;;;;;;;;;;5105838;28;20054;-52
2023/07/08 02:16:19;;;;;;;22.67;6.28;;;;;;;;;;5105947;28;20027;-50
2023/07/08 02:18:46;;;;;;;21.27;5.68;;;;;;;;;;5106246;28;20031;-48
2023/07/08 02:21:13;;;;;;;21.75;6.13;;;;;;;;;;5105949;28;20373;-46
2023/07/08 02:23:40;;;;;;;18.95;5.82;;;;;;;;;;5105958;28;20090;-48
2023/07/08 02:26:07;;;;;;;21.75;6.30;;;;;;;;;;5105622;28;20048;-50
2023/07/08 02:28:33;;;;;;;21.02;5.85;;;;;;;;;;5105489;28;20077;-49
2023/07/08 02:31:03;;;;;;;18.95;6.45;;;;;;;;;;5105568;28;20024;-45
2023/07/08 02:33:32;;;;;;;20.73;6.78;;;;;;;;;;5104837;28;20042;-48
2023/07/08 02:36:00;;;;;;;18.25;6.63;;;;;;;;;;5105620;28;20423;-47
2023/07/08 02:38:27;;;;;;;17.50;6.38;;;;;;;;;;5105690;28;20036;-53
2023/07/08 02:40:54;;;;;;;23.65;6.55;;;;;;;;;;5105537;28;20030;-49
2023/07/08 02:43:21;;;;;;;19.38;6.47;;;;;;;;;;5105738;28;20080;-46
2023/07/08 02:45:50;;;;;;;14.18;6.70;;;;;;;;;;5105419;28;20024;-52
2023/07/08 02:48:18;;;;;;;17.67;6.75;;;;;;;;;;5105319;28;20091;-46
2023/07/08 02:50:45;;;;;;;21.92;6.63;;;;;;;;;;5105695;28;20038;-51
2023/07/08 02:53:12;;;;;;;20.35;6.32;;;;;;;;;;5105561;28;20024;-45
2023/07/08 02:55:39;;;;;;;20.08;6.05;;;;;;;;;;5105426;28;20024;-48
2023/07/08 02:58:06;;;;;;;20.98;5.78;;;;;;;;;;5105451;28;20035;-45
2023/07/08 03:00:33;;;;;;;22.23;6.03;;;;;;;;;;5087567;28;20101;-46
2023/07/08 03:03:00;;;;;;;22.75;5.55;;;;;;;;;;5105425;28;20023;-55
2023/07/08 03:05:27;;;;;;;20.15;6.05;;;;;;;;;;5105664;28;20024;-46
2023/07/08 03:07:53;;;;;;;19.30;6.15;;;;;;;;;;5104998;28;20073;-46
2023/07/08 03:10:20;;;;;;;18.65;5.95;;;;;;;;;;5105733;28;20028;-46
2023/07/08 03:12:47;;;;;;;18.75;5.75;;;;;;;;;;5104881;28;20027;-46
2023/07/08 03:15:13;;;;;;;14.75;5.38;;;;;;;;;;5105686;28;20070;-51
2023/07/08 03:17:41;;;;;;;18.27;4.88;;;;;;;;;;5105238;28;20019;-49
2023/07/08 03:20:10;;;;;;;20.98;5.60;;;;;;;;;;5105197;28;20028;-47
2023/07/08 03:22:36;;;;;;;20.58;6.00;;;;;;;;;;5104983;28;20073;-55
2023/07/08 03:25:03;;;;;;;20.05;5.55;;;;;;;;;;5105215;28;20105;-45
2023/07/08 03:27:30;;;;;;;21.42;5.82;;;;;;;;;;5105172;28;20027;-50
2023/07/08 03:29:56;;;;;;;16.60;4.88;;;;;;;;;;5104724;28;20032;-49
2023/07/08 03:32:25;;;;;;;18.52;5.43;;;;;;;;;;5104707;28;20059;-48
2023/07/08 03:35:01;;;;;;;14.85;5.13;;;;;;;;;;5105121;28;20276;-45
2023/07/08 03:37:27;;;;;;;19.52;5.22;;;;;;;;;;5105513;28;20032;-54
2023/07/08 03:39:57;;;;;;;17.92;5.65;;;;;;;;;;5104831;28;20350;-47
2023/07/08 03:42:24;;;;;;;16.75;5.40;;;;;;;;;;5087368;28;20353;-47
2023/07/08 03:44:50;;;;;;;19.10;5.13;;;;;;;;;;5104800;28;20035;-45
2023/07/08 03:47:17;;;;;;;18.92;5.93;;;;;;;;;;5104985;28;20024;-46
2023/07/08 03:49:44;;;;;;;19.65;5.38;;;;;;;;;;5104715;28;20098;-49
2023/07/08 03:52:15;;;;;;;17.15;5.35;;;;;;;;;;5098090;28;20027;-50
2023/07/08 03:54:42;;;;;;;18.25;4.82;;;;;;;;;;5096929;28;20035;-48
2023/07/08 03:57:08;;;;;;;17.52;4.90;;;;;;;;;;5101351;28;20049;-56
2023/07/08 03:59:35;;;;;;;17.35;5.35;;;;;;;;;;5104144;28;20035;-59
2023/07/08 04:02:02;;;;;;;23.08;7.85;;;;;;;;;;5104576;28;20118;-59
2023/07/08 04:04:29;;;;;;;23.98;6.75;;;;;;;;;;5104015;28;20027;-59
2023/07/08 04:06:56;;;;;;;25.35;6.28;;;;;;;;;;5104437;28;20294;-55
2023/07/08 04:09:22;;;;;;;21.85;6.03;;;;;;;;;;5103860;28;20069;-55
2023/07/08 04:11:49;;;;;;;23.27;6.88;;;;;;;;;;5104214;28;20024;-54
2023/07/08 04:14:15;;;;;;;19.65;5.57;;;;;;;;;;5104032;28;20036;-52
2023/07/08 04:16:51;;;;;;;17.35;6.13;;;;;;;;;;5104309;28;20046;-57
2023/07/08 04:19:17;;;;;;;20.10;7.35;;;;;;;;;;5103879;28;20035;-56
2023/07/08 04:21:45;;;;;;;19.33;7.80;;;;;;;;;;5104254;28;20038;-52
2023/07/08 04:24:12;;;;;;;21.67;7.07;;;;;;;;;;5104013;28;20024;-53
2023/07/08 04:26:41;;;;;;;21.42;7.75;;;;;;;;;;5103312;28;20052;-53
2023/07/08 04:29:11;;;;;;;23.00;6.93;;;;;;;;;;5118083;28;20245;-57
2023/07/08 04:31:37;;;;;;;19.42;6.68;;;;;;;;;;5124496;28;20026;-58
2023/07/08 04:34:06;;;;;;;18.13;6.53;;;;;;;;;;5124291;28;20028;-55
2023/07/08 04:36:33;;;;;;;20.08;6.50;;;;;;;;;;5124478;28;20027;-53
2023/07/08 04:39:00;;;;;;;19.38;5.80;;;;;;;;;;5123986;28;20368;-56
2023/07/08 04:41:27;;;;;;;16.58;5.68;;;;;;;;;;5124270;28;20034;-61
2023/07/08 04:43:54;;;;;;;14.15;5.70;;;;;;;;;;5124211;28;20100;-54
2023/07/08 04:46:26;;;;;;;19.55;6.13;;;;;;;;;;5124246;28;20019;-53
2023/07/08 04:48:52;;;;;;;18.55;6.00;;;;;;;;;;5124154;28;20088;-55
2023/07/08 04:51:19;;;;;;;15.55;6.00;;;;;;;;;;5124165;28;20051;-54
2023/07/08 04:53:45;;;;;;;15.82;6.22;;;;;;;;;;5123977;28;20019;-57
2023/07/08 04:56:12;;;;;;;19.67;5.90;;;;;;;;;;5118713;28;20035;-56
2023/07/08 04:58:38;;;;;;;22.40;5.93;;;;;;;;;;5098815;28;20036;-56
2023/07/08 05:01:05;;;;;;;18.60;6.03;;;;;;;;;;5087200;28;20047;-53
2023/07/08 05:03:32;;;;;;;19.48;6.25;;;;;;;;;;5086943;28;20044;-57
2023/07/08 05:05:58;;;;;;;22.15;6.05;;;;;;;;;;5087116;28;20305;-57
2023/07/08 05:08:25;;;;;;;16.55;5.80;;;;;;;;;;5086723;28;20028;-52
2023/07/08 05:10:52;;;;;;;18.77;5.57;;;;;;;;;;5110382;28;20020;-53
2023/07/08 05:13:18;;;;;;;19.23;6.38;;;;;;;;;;5127663;28;20038;-59
2023/07/08 05:15:45;;;;;;;20.48;5.97;;;;;;;;;;5123265;28;20016;-53
2023/07/08 05:18:11;;;;;;;17.10;5.82;;;;;;;;;;5118460;28;20031;-55
2023/07/08 05:20:38;;;;;;;16.30;5.22;;;;;;;;;;5127526;28;20042;-54
2023/07/08 05:23:05;;;;;;;17.90;5.45;;;;;;;;;;5127173;28;20020;-53
2023/07/08 05:25:32;;;;;;;18.15;6.22;;;;;;;;;;5127228;28;20047;-52
2023/07/08 05:27:59;;;;;;;18.35;5.50;;;;;;;;;;5127295;28;20046;-51
2023/07/08 05:30:26;;;;;;;25.10;5.40;;;;;;;;;;5127307;28;20078;-58
2023/07/08 05:32:54;;;;;;;21.83;5.88;;;;;;;;;;5127340;28;20035;-52
2023/07/08 05:35:20;;;;;;;18.33;5.88;;;;;;;;;;5127205;28;20227;-53
2023/07/08 05:37:47;;;;;;;20.73;5.68;;;;;;;;;;5126967;28;20031;-53
2023/07/08 05:40:13;;;;;;;18.70;6.07;;;;;;;;;;5127017;28;20040;-57
2023/07/08 05:42:40;;;;;;;16.52;6.22;;;;;;;;;;5117813;28;20040;-52
2023/07/08 05:45:07;;;;;;;20.58;6.07;;;;;;;;;;5125836;28;20024;-56
2023/07/08 05:47:33;;;;;;;18.63;6.13;;;;;;;;;;5122671;28;20055;-54
2023/07/08 05:50:00;;;;;;;21.60;6.15;;;;;;;;;;5106318;28;20024;-54
2023/07/08 05:52:26;;;;;;;18.05;6.25;;;;;;;;;;5107293;28;20020;-54
2023/07/08 05:54:53;;;;;;;23.27;5.97;;;;;;;;;;5126563;28;20031;-53
2023/07/08 05:57:20;;;;;;;18.48;5.82;;;;;;;;;;5127229;28;20035;-53
2023/07/08 05:59:46;;;;;;;20.20;5.68;;;;;;;;;;5126742;28;20265;-52
2023/07/08 06:02:13;;;;;;;15.48;5.63;;;;;;;;;;5126731;28;20113;-57
2023/07/08 06:04:40;;;;;;;19.58;6.00;;;;;;;;;;5126597;28;20096;-53
2023/07/08 06:07:07;;;;;;;21.85;6.07;;;;;;;;;;5125642;28;20026;-54
2023/07/08 06:09:34;;;;;;;14.45;5.40;;;;;;;;;;5126315;28;20043;-58
2023/07/08 06:12:00;;;;;;;18.80;6.22;;;;;;;;;;5124997;28;20020;-54
2023/07/08 06:14:27;;;;;;;19.10;6.38;;;;;;;;;;5105743;28;20332;-54
2023/07/08 06:16:57;;;;;;;18.05;5.57;;;;;;;;;;5105680;28;20028;-53
2023/07/08 06:19:23;;;;;;;18.77;6.20;;;;;;;;;;5121467;28;20323;-53
2023/07/08 06:21:50;;;;;;;16.15;5.80;;;;;;;;;;5126487;28;20232;-53
2023/07/08 06:24:17;;;;;;;18.98;5.65;;;;;;;;;;5126087;28;20047;-57
2023/07/08 06:26:44;;;;;;;19.95;5.72;;;;;;;;;;5126023;28;20235;-56
2023/07/08 06:29:10;;;;;;;16.83;5.18;;;;;;;;;;5126530;28;20027;-57
2023/07/08 06:31:37;;;;;;;16.42;5.97;;;;;;;;;;5125943;28;20069;-54
2023/07/08 06:34:04;;;;;;;16.88;5.57;;;;;;;;;;5126423;28;20326;-54
2023/07/08 06:36:31;;;;;;;15.80;5.55;;;;;;;;;;5125948;28;20047;-55
2023/07/08 06:38:57;;;;;;;17.88;5.95;;;;;;;;;;5126042;28;20300;-53
2023/07/08 06:41:24;;;;;;;19.73;5.68;;;;;;;;;;5125713;28;20039;-55
2023/07/08 06:43:51;;;;;;;18.65;6.20;;;;;;;;;;5126204;28;20030;-60
2023/07/08 06:46:18;;;;;;;15.35;5.22;;;;;;;;;;5125472;28;20062;-55
2023/07/08 06:48:45;;;;;;;18.75;5.85;;;;;;;;;;5111743;28;20032;-54
2023/07/08 06:51:12;;;;;;;19.25;6.45;;;;;;;;;;5105072;28;20016;-53
2023/07/08 06:53:38;;;;;;;15.30;5.78;;;;;;;;;;5105287;28;20024;-54
2023/07/08 06:56:05;;;;;;;20.15;6.32;;;;;;;;;;5105180;28;20240;-53
2023/07/08 06:58:31;;;;;;;23.17;6.38;;;;;;;;;;5105000;28;20024;-53
2023/07/08 07:00:58;;;;;;;20.08;6.68;;;;;;;;;;5101114;28;20031;-60
2023/07/08 07:03:24;;;;;;;19.23;6.53;;;;;;;;;;5093861;28;20039;-52
2023/07/08 07:05:51;;;;;;;20.23;5.93;;;;;;;;;;5084575;28;20028;-61
2023/07/08 07:08:18;;;;;;;17.75;5.82;;;;;;;;;;5084562;28;20036;-56
2023/07/08 07:10:44;;;;;;;17.25;5.47;;;;;;;;;;5084522;28;20047;-53
2023/07/08 07:13:11;;;;;;;22.85;6.10;;;;;;;;;;5084716;28;20016;-54
2023/07/08 07:15:37;;;;;;;13.45;5.07;;;;;;;;;;5084334;28;20054;-56
2023/07/08 07:18:04;;;;;;;16.23;5.75;;;;;;;;;;5084268;28;20048;-57
2023/07/08 07:20:31;;;;;;;16.73;5.13;;;;;;;;;;5084109;28;20024;-54
2023/07/08 07:22:58;;;;;;;20.25;5.53;;;;;;;;;;5084528;28;20036;-59
2023/07/08 07:25:25;;;;;;;19.13;5.47;;;;;;;;;;5084009;28;20113;-54
2023/07/08 07:27:51;;;;;;;18.77;5.80;;;;;;;;;;5084350;28;20024;-54
2023/07/08 07:30:18;;;;;;;17.35;5.80;;;;;;;;;;5084430;28;20277;-53
2023/07/08 07:32:45;;;;;;;20.42;6.07;;;;;;;;;;5084215;28;20016;-53
2023/07/08 07:35:14;;;;;;;18.77;6.10;;;;;;;;;;5084067;28;20058;-59
2023/07/08 07:37:41;;;;;;;17.95;6.53;;;;;;;;;;5084058;28;20055;-55
2023/07/08 07:40:12;;;;;;;18.02;7.53;;;;;;;;;;5083891;28;20048;-54
2023/07/08 07:42:42;;;;;;;21.80;7.47;;;;;;;;;;5083819;28;20024;-54
2023/07/08 07:45:09;;;;;;;21.67;7.18;;;;;;;;;;5083868;28;20039;-54
2023/07/08 07:47:35;;;;;;;17.52;6.32;;;;;;;;;;5083944;28;20067;-54
2023/07/08 07:50:02;;;;;;;17.88;6.00;;;;;;;;;;5083952;28;20321;-52
2023/07/08 07:52:29;;;;;;;16.83;5.90;;;;;;;;;;5083519;28;20091;-59
2023/07/08 07:54:56;;;;;;;15.38;5.97;;;;;;;;;;5083920;28;20341;-54
2023/07/08 07:57:23;;;;;;;17.05;5.13;;;;;;;;;;5083713;28;20017;-53
2023/07/08 07:59:50;;;;;;;19.15;5.75;;;;;;;;;;5083867;28;20036;-56
2023/07/08 08:02:17;;;;;;;17.40;5.70;;;;;;;;;;5083902;28;20366;-53
2023/07/08 08:04:43;;;;;;;17.98;6.18;;;;;;;;;;5083863;28;20024;-53
2023/07/08 08:07:10;;;;;;;15.07;5.10;;;;;;;;;;5083719;28;20032;-54
2023/07/08 08:09:37;;;;;;;18.17;5.45;;;;;;;;;;5083255;28;20032;-53
2023/07/08 08:12:04;;;;;;;16.23;5.60;;;;;;;;;;5083746;28;20084;-54
2023/07/08 08:14:31;;;;;;;18.35;5.38;;;;;;;;;;5084150;28;20043;-54
2023/07/08 08:16:58;;;;;;;19.10;5.28;;;;;;;;;;5083562;28;20259;-58
2023/07/08 08:19:26;;;;;;;18.98;5.68;;;;;;;;;;5084118;28;20036;-53
2023/07/08 08:21:54;;;;;;;14.75;4.82;;;;;;;;;;5083567;28;20028;-53
2023/07/08 08:24:20;;;;;;;18.05;5.40;;;;;;;;;;5083970;28;20071;-53
2023/07/08 08:26:47;;;;;;;18.58;5.32;;;;;;;;;;5088329;28;20155;-53
2023/07/08 08:29:13;;;;;;;21.50;5.60;;;;;;;;;;5098090;28;20109;-53
2023/07/08 08:31:40;;;;;;;15.95;5.78;;;;;;;;;;5106182;28;20038;-53
2023/07/08 08:34:06;;;;;;;17.20;5.95;;;;;;;;;;5108330;28;20020;-55
2023/07/08 08:36:33;;;;;;;20.85;6.13;;;;;;;;;;5107837;28;20032;-52
2023/07/08 08:39:00;;;;;;;19.80;6.00;;;;;;;;;;5089707;28;20024;-58
2023/07/08 08:41:31;;;;;;;23.08;6.05;;;;;;;;;;5107755;28;20035;-53
2023/07/08 08:43:58;;;;;;;24.20;6.17;;;;;;;;;;5109795;28;20364;-55
2023/07/08 08:46:28;;;;;;;15.40;5.43;;;;;;;;;;5124369;28;20269;-52
2023/07/08 08:48:57;;;;;;;22.95;6.15;;;;;;;;;;5122601;28;20028;-54
2023/07/08 08:51:26;;;;;;;20.40;5.93;;;;;;;;;;5113936;28;20081;-53
2023/07/08 08:53:55;;;;;;;15.32;4.95;;;;;;;;;;5128087;28;20295;-54
2023/07/08 08:56:28;;;;;;;19.55;5.43;;;;;;;;;;5127962;28;20024;-55
2023/07/08 08:59:19;;;;;;;16.30;4.85;;;;;;;;;;5128086;28;20031;-52
2023/07/08 09:01:47;;;;;;;16.25;4.70;;;;;;;;;;5127663;28;20047;-59
2023/07/08 09:04:21;;;;;;;14.45;3.95;;;;;;;;;;5128008;28;20031;-57
2023/07/08 09:06:48;;;;;;;10.85;3.40;;;;;;;;;;5127749;28;20032;-55
2023/07/08 09:09:33;;;;;;;9.48;3.08;;;;;;;;;;5128047;28;20031;-53
2023/07/08 09:12:03;;;;;;;9.10;3.00;;;;;;;;;;5127531;28;20293;-57
2023/07/08 09:14:30;;;;;;;6.03;2.38;;;;;;;;;;5127947;28;20031;-52
2023/07/08 09:17:03;;;;;;;8.48;2.28;;;;;;;;;;5127322;28;20363;-53
2023/07/08 09:19:29;;;;;;;;;;;;;;;;;;5128431;28;20296;-58
2023/07/08 09:22:00;;;;;;;6.80;2.63;;;;;;;;;;5127232;28;19979;-57
2023/07/08 09:24:33;;;;;;;7.00;2.80;;;;;;;;;;5127716;28;20039;-52
2023/07/08 09:27:01;;;;;;;8.70;3.08;;;;;;;;;;5127064;28;20062;-56
2023/07/08 09:29:28;;;;;;;8.70;2.88;;;;;;;;;;5127461;28;20047;-56
2023/07/08 09:31:55;;;;;;;6.65;2.63;;;;;;;;;;5127306;28;20026;-57
2023/07/08 09:34:23;;;;;;;9.32;3.15;;;;;;;;;;5127659;28;20035;-54
2023/07/08 09:36:51;;;;;;;8.48;2.83;;;;;;;;;;5127216;28;20070;-57
2023/07/08 09:39:19;;;;;;;13.38;3.35;;;;;;;;;;5127540;28;20019;-57
2023/07/08 09:41:46;;;;;;;9.98;3.33;;;;;;;;;;5114717;28;20028;-56
2023/07/08 09:44:39;;;;;;;9.13;2.58;;;;;;;;;;5087467;28;20039;-54
2023/07/08 09:47:05;;;;;;;;;;;;;;;;;;5092041;28;20051;-55
2023/07/08 09:49:33;;;;;;;9.05;2.72;;;;;;;;;;5106759;28;19904;-59
2023/07/08 09:52:00;;;;;;;6.72;2.70;;;;;;;;;;5106452;28;20259;-56
2023/07/08 09:54:27;;;;;;;11.07;2.75;;;;;;;;;;5106678;28;20319;-56
2023/07/08 09:56:55;;;;;;;7.97;2.50;;;;;;;;;;5105967;28;20020;-55
2023/07/08 09:59:24;;;;;;;7.47;2.55;;;;;;;;;;5106320;28;20024;-59
2023/07/08 10:01:51;;;;;;;5.40;2.28;;;;;;;;;;5105761;28;20074;-55
2023/07/08 10:04:20;;;;;;;8.95;1.95;;;;;;;;;;5106432;28;20012;-57
2023/07/08 10:06:47;;;;;;;5.32;2.17;;;;;;;;;;5106231;28;20039;-53
2023/07/08 10:09:18;;;;;;;5.45;2.00;;;;;;;;;;5106255;28;20036;-57
2023/07/08 10:11:51;;;;;;;5.18;1.83;;;;;;;;;;5106172;28;20039;-56
2023/07/08 10:14:18;;;;;;;6.53;1.90;;;;;;;;;;5104913;28;20021;-54
2023/07/08 10:16:44;;;;;;;6.07;2.00;;;;;;;;;;5123249;28;20026;-54
2023/07/08 10:19:16;;;;;;;6.07;2.13;;;;;;;;;;5115799;28;20076;-52
2023/07/08 10:21:52;;;;;;;5.70;1.73;;;;;;;;;;5109498;28;20055;-52
2023/07/08 10:24:28;;;;;;;8.70;1.90;;;;;;;;;;5118655;28;20023;-53
2023/07/08 10:26:59;;;;;;;7.45;1.83;;;;;;;;;;5126017;28;20040;-55
2023/07/08 10:29:34;;;;;;;8.88;2.30;;;;;;;;;;5125763;28;20031;-55
2023/07/08 10:32:09;;;;;;;7.43;1.95;;;;;;;;;;5103475;28;20039;-52
2023/07/08 10:34:39;;;;;;;13.95;9.23;;;;;;;;;;5086706;28;20240;-52
2023/07/08 10:37:09;;;;;;;11.32;4.20;;;;;;;;;;5085192;28;20040;-53
2023/07/08 10:39:36;;;;;;;9.60;3.40;;;;;;;;;;5085624;28;20016;-53
2023/07/08 10:42:09;;;;;;;11.07;3.33;;;;;;;;;;5085005;28;20074;-55
2023/07/08 10:44:40;;;;;;;8.25;3.22;;;;;;;;;;5084920;28;20043;-56
2023/07/08 10:47:16;;;;;;;6.10;2.60;;;;;;;;;;5084987;28;20367;-58
2023/07/08 10:49:50;;;;;;;7.75;2.80;;;;;;;;;;5084865;28;20039;-60
2023/07/08 10:52:20;;;;;;;7.38;3.28;;;;;;;;;;5097372;28;20048;-52
2023/07/08 10:54:50;;;;;;;10.70;3.50;;;;;;;;;;5104271;28;20030;-46
2023/07/08 10:57:26;;;;;;;14.98;4.82;;;;;;;;;;5104894;28;20020;-52
2023/07/08 10:59:52;;;;;;;13.48;4.10;;;;;;;;;;5105144;28;20210;-49
2023/07/08 11:02:28;;;;;;;10.43;4.00;;;;;;;;;;5104947;28;20386;-52
2023/07/08 11:05:11;;;;;;;12.77;4.05;;;;;;;;;;5105156;28;20031;-54
2023/07/08 11:07:43;;;;;;;17.27;4.50;;;;;;;;;;5104908;28;20032;-52
2023/07/08 11:10:09;;;;;;;;;;;;;;;;;;5105463;28;20039;-55
2023/07/08 11:12:41;;;;;;;15.35;5.32;;;;;;;;;;5101764;28;20267;-55
2023/07/08 11:15:08;;;;;;;;;;;;;;;;;;5085076;28;20021;-51
2023/07/08 11:17:52;;;;;;;17.25;5.47;;;;;;;;;;5084600;28;19908;-56
2023/07/08 11:20:23;;;;;;;13.13;5.43;;;;;;;;;;5104077;28;20015;-57
2023/07/08 11:22:58;;;;;;;14.75;4.60;;;;;;;;;;5124967;28;20055;-53
2023/07/08 11:25:27;;;;;;;15.38;4.80;;;;;;;;;;5109255;28;20060;-46
2023/07/08 11:27:55;;;;;;;14.52;4.13;;;;;;;;;;5091145;28;20098;-46
2023/07/08 11:30:24;;;;;;;11.40;4.20;;;;;;;;;;5095444;28;20016;-46
2023/07/08 11:32:58;;;;;;;14.27;4.43;;;;;;;;;;5095257;28;20287;-53
2023/07/08 11:35:31;;;;;;;12.82;4.00;;;;;;;;;;5093102;28;20028;-45
2023/07/08 11:37:58;;;;;;;14.73;4.50;;;;;;;;;;5104548;28;20095;-49
2023/07/08 11:40:25;;;;;;;16.25;4.65;;;;;;;;;;5097803;28;20040;-45
2023/07/08 11:42:53;;;;;;;12.20;3.92;;;;;;;;;;5088852;28;20048;-53
2023/07/08 11:45:19;;;;;;;10.15;3.63;;;;;;;;;;5095369;28;20021;-45
2023/07/08 11:47:47;;;;;;;10.55;3.80;;;;;;;;;;5084315;28;20056;-49
2023/07/08 11:50:22;;;;;;;8.55;3.33;;;;;;;;;;5096494;28;20015;-51
2023/07/08 11:52:59;;;;;;;14.73;3.97;;;;;;;;;;5093243;28;20040;-45
2023/07/08 11:55:28;;;;;;;13.63;4.40;;;;;;;;;;5084701;28;20075;-52
2023/07/08 11:57:57;;;;;;;16.92;4.32;;;;;;;;;;5093993;28;20040;-43
2023/07/08 12:00:25;;;;;;;8.82;4.03;;;;;;;;;;5095149;28;20028;-46
2023/07/08 12:02:59;;;;;;;15.48;4.45;;;;;;;;;;5083896;28;20092;-44
2023/07/08 12:05:32;;;;;;;10.95;3.78;;;;;;;;;;5086798;28;20037;-43
2023/07/08 12:08:00;;;;;;;11.70;4.28;;;;;;;;;;5103983;28;20038;-41
2023/07/08 12:10:47;;;;;;;11.18;3.92;;;;;;;;;;5104083;28;20284;-52
2023/07/08 12:13:15;;;;;;;11.57;4.47;;;;;;;;;;5102779;28;20036;-48
2023/07/08 12:15:43;;;;;;;12.48;4.70;;;;;;;;;;5104309;28;20066;-53
2023/07/08 12:18:10;;;;;;;15.15;4.88;;;;;;;;;;5104638;28;20031;-56
2023/07/08 12:20:37;;;;;;;15.98;4.93;;;;;;;;;;5104432;28;20032;-54
2023/07/08 12:23:10;;;;;;;12.75;4.47;;;;;;;;;;5104823;28;20365;-51
2023/07/08 12:25:36;;;;;;;11.57;4.22;;;;;;;;;;5104363;28;20170;-51
2023/07/08 12:28:03;;;;;;;12.80;4.70;;;;;;;;;;5104993;28;20034;-51
2023/07/08 12:30:31;;;;;;;14.52;4.93;;;;;;;;;;5105051;28;20062;-47
2023/07/08 12:33:02;;;;;;;13.82;4.88;;;;;;;;;;5104796;28;20213;-45
2023/07/08 12:35:28;;;;;;;15.35;4.70;;;;;;;;;;5105019;28;20020;-51
2023/07/08 12:37:56;;;;;;;13.60;4.90;;;;;;;;;;5104105;28;20069;-48
2023/07/08 12:40:23;;;;;;;13.77;4.60;;;;;;;;;;5104680;28;20044;-46
2023/07/08 12:42:50;;;;;;;14.68;4.60;;;;;;;;;;5086563;28;20215;-48
2023/07/08 12:45:19;;;;;;;14.68;4.75;;;;;;;;;;5103857;28;20024;-49
2023/07/08 12:47:46;;;;;;;14.45;4.43;;;;;;;;;;5104267;28;20035;-45
2023/07/08 12:50:13;;;;;;;12.80;5.15;;;;;;;;;;5104278;28;20027;-47
2023/07/08 12:52:40;;;;;;;11.98;4.18;;;;;;;;;;5104547;28;20083;-46
2023/07/08 12:55:10;;;;;;;13.52;5.03;;;;;;;;;;5104026;28;20024;-47
2023/07/08 12:57:37;;;;;;;12.05;4.70;;;;;;;;;;5104371;28;20051;-48
2023/07/08 13:00:05;;;;;;;12.07;5.05;;;;;;;;;;5104215;28;20050;-47
2023/07/08 13:02:32;;;;;;;14.65;4.63;;;;;;;;;;5104406;28;20036;-48
2023/07/08 13:05:01;;;;;;;12.45;4.38;;;;;;;;;;5104008;28;20016;-54
2023/07/08 13:07:37;;;;;;;13.10;4.80;;;;;;;;;;5103978;28;20023;-49
2023/07/08 13:10:05;;;;;;;13.27;4.20;;;;;;;;;;5104226;28;20414;-48
2023/07/08 13:12:34;;;;;;;12.23;4.20;;;;;;;;;;5103836;28;20028;-48
2023/07/08 13:15:01;;;;;;;13.82;4.60;;;;;;;;;;5103753;28;20296;-44
2023/07/08 13:17:28;;;;;;;10.80;3.92;;;;;;;;;;5105895;28;20036;-47
2023/07/08 13:19:55;;;;;;;12.77;3.95;;;;;;;;;;5107224;28;20020;-50
2023/07/08 13:22:22;;;;;;;11.48;3.72;;;;;;;;;;5107137;28;20043;-51
2023/07/08 13:24:50;;;;;;;10.38;3.50;;;;;;;;;;5107082;28;20089;-53
2023/07/08 13:27:22;;;;;;;10.10;3.83;;;;;;;;;;5106852;28;20339;-58
2023/07/08 13:29:49;;;;;;;12.00;3.78;;;;;;;;;;5107002;28;20035;-54
2023/07/08 13:32:16;;;;;;;11.63;3.90;;;;;;;;;;5106762;28;20016;-53
2023/07/08 13:34:42;;;;;;;12.00;3.78;;;;;;;;;;5106983;28;20016;-55
2023/07/08 13:37:12;;;;;;;10.88;4.00;;;;;;;;;;5106666;28;20053;-59
2023/07/08 13:39:40;;;;;;;10.40;3.40;;;;;;;;;;5107482;28;20015;-53
2023/07/08 13:42:07;;;;;;;9.15;3.58;;;;;;;;;;5106655;28;20020;-54
2023/07/08 13:44:34;;;;;;;21.40;4.22;;;;;;;;;;5107204;28;20020;-47
2023/07/08 13:47:01;;;;;;;17.65;4.30;;;;;;;;;;5106710;28;20031;-53
2023/07/08 13:49:31;;;;;;;13.73;3.40;;;;;;;;;;5106556;28;20070;-51
2023/07/08 13:52:19;;;;;;;11.65;3.97;;;;;;;;;;5106804;28;20072;-55
2023/07/08 13:54:52;;;;;;;11.77;3.72;;;;;;;;;;5106060;28;20083;-53
2023/07/08 13:57:20;;;;;;;14.00;3.88;;;;;;;;;;5106432;28;20310;-54
2023/07/08 13:59:47;;;;;;;15.85;3.80;;;;;;;;;;5106625;28;20016;-52
2023/07/08 14:02:19;;;;;;;12.77;3.78;;;;;;;;;;5106853;28;20150;-53
2023/07/08 14:04:46;;;;;;;9.57;3.78;;;;;;;;;;5106200;28;20028;-56
2023/07/08 14:07:23;;;;;;;8.27;3.42;;;;;;;;;;5106455;28;20169;-54
2023/07/08 14:09:50;;;;;;;9.32;3.53;;;;;;;;;;5106817;28;20039;-53
2023/07/08 14:12:17;;;;;;;7.93;3.55;;;;;;;;;;5106360;28;20023;-45
2023/07/08 14:14:43;;;;;;;8.98;3.67;;;;;;;;;;5106413;28;20036;-47
2023/07/08 14:17:15;;;;;;;10.27;3.55;;;;;;;;;;5106627;28;20040;-46
2023/07/08 14:19:42;;;;;;;10.48;4.03;;;;;;;;;;5106758;28;20071;-47
2023/07/08 14:22:14;;;;;;;15.57;4.03;;;;;;;;;;5106770;28;20028;-49
2023/07/08 14:24:42;;;;;;;9.80;3.97;;;;;;;;;;5106311;28;20034;-46
2023/07/08 14:27:12;;;;;;;13.65;3.53;;;;;;;;;;5105726;28;20256;-48
2023/07/08 14:29:39;;;;;;;9.75;3.40;;;;;;;;;;5104849;28;20172;-45
2023/07/08 14:32:10;;;;;;;8.20;3.10;;;;;;;;;;5105927;28;20390;-52
2023/07/08 14:34:37;;;;;;;9.40;3.83;;;;;;;;;;5105540;28;20020;-48
2023/07/08 14:37:04;;;;;;;10.25;3.90;;;;;;;;;;5105846;28;20342;-47
2023/07/08 14:39:30;;;;;;;9.15;3.50;;;;;;;;;;5105810;28;20028;-50